Domov               UVHVVR             MKGP            O straneh              
ZDRAVSTVENO VARSTVO RASTLIN
  MREŽA AGROMET. POSTAJ
 ► PROGNOSTIČNA OBVESTILA
AGROMETEOROLOŠKI PODATKI -
ARSO
OBVLADOVANJE TVEGANJ ZARADI
NEUGODNIH VREMENSKIH RAZMER
  ► NARAVNE NESREČE
  ► SUŠA/MOČA
  ► NAMAKANJE
  ► ŽLED (gozdarstvo)
KARTOGRAFSKI PRIKAZI
SPLETNE POVEZAVE
PROJEKTI IN PUBLIKACIJE

AGROMETEOROLOŠKA MREŽA: VREMENSKE POSTAJE IN FENOLOŠKA OPAZOVANJA

Pregled podatkov za lokacijo Gabernik-Rogaška, meteorološka postaja 37800

Pregled senzorjev na lokaciji

ID Ime Zadnja
vrednost
Datum in čas
zadnje
spremembe
(Lokalni čas)
Tip
senzorja
1828 Omočenost lista (1,5 m) (U) 10 U 29.11.2021 00:30 A730WET
4946 Padavine (mm) 0 mm 29.11.2021 00:30 Generic 0.2 mm
1827 Relativna zračna vlaga (2 m) (%RH) 95 %RH 29.11.2021 00:30 50YA
1826 Temperatura (2 m) (°C) -0.3 °C 29.11.2021 00:30 50YA

Pregled podatkov zadnjih 24 ur

Zap.
št.
Datum in čas
(Centralno
evropski čas)
Gabernik-Rogaška
Omočenost
lista
(1,5
m)
Padavine Relativna
zračna
vlaga
(2
m)
Temperatura
(2
m)
1 29.11.2021 00:30 10 0 95.2 -0.3
2 29.11.2021 00:00 10 0 95 -0.1
3 28.11.2021 23:30 10 0 94.4 -0.1
4 28.11.2021 23:00 10 0.2 92.9 0.6
5 28.11.2021 22:30 9 0.4 91.7 1.7
6 28.11.2021 22:00 10 0 88.4 2.2
7 28.11.2021 21:30 10 0 91.6 2.1
8 28.11.2021 21:00 4 0 92 2.1
9 28.11.2021 20:30 3 0 90.1 2.2
10 28.11.2021 20:00 7 0 88.5 2.3
11 28.11.2021 19:30 9 0 90.3 2.1
12 28.11.2021 19:00 9 0 93 2.4
13 28.11.2021 18:30 9 0 92.7 2.7
14 28.11.2021 18:00 8 0 94.9 2.4
15 28.11.2021 17:30 8 0 95.4 2.2
16 28.11.2021 17:00 8 0 95.2 2.4
17 28.11.2021 16:30 7 0 95 2.6
18 28.11.2021 16:00 7 0 95.2 2.9
19 28.11.2021 15:30 6 0 95 3.2
20 28.11.2021 15:00 5 0 94.6 3.3
21 28.11.2021 14:30 3 0 94.3 3.3
22 28.11.2021 14:00 2 0 91.8 3.8
23 28.11.2021 13:30 2 0 91.9 3.9
24 28.11.2021 13:00 2 0 95.1 3.1
25 28.11.2021 12:30 5 0 94.2 3.1
26 28.11.2021 12:00 4 0.2 93.9 3.5
27 28.11.2021 11:30 4 0.8 95.2 2.5
28 28.11.2021 11:00 4 0.6 94.7 2.6
29 28.11.2021 10:30 4 0 95.7 2.2
30 28.11.2021 10:00 3 0 96 2
31 28.11.2021 09:30 4 0.2 96.1 1.6
32 28.11.2021 09:00 4 0 96.1 1.4
33 28.11.2021 08:30 4 0 96.1 1.3
34 28.11.2021 08:00 4 1.2 96 1.2
35 28.11.2021 07:30 4 2 96.1 1.6
36 28.11.2021 07:00 4 2.6 96.1 1.3
37 28.11.2021 06:30 5 1.2 96.1 1.1
38 28.11.2021 06:00 8 1.6 96.1 0.9
39 28.11.2021 05:30 7 0.4 96 0.9
40 28.11.2021 05:00 7 0.4 96 0.9
41 28.11.2021 04:30 9 0.2 96 0.9
42 28.11.2021 04:00 10 0 95.9 1.1
43 28.11.2021 03:30 10 0 95.9 1
44 28.11.2021 03:00 9 0 95.9 1.2
45 28.11.2021 02:30 8 0 95.9 1.5
46 28.11.2021 02:00 7 0 95.9 1.6
47 28.11.2021 01:30 9 0.2 95.9 2.1
© 2011 Ministrstvo za kmetijstvo, gozdarstvo in prehrano. Vse pravice pridržane.